createdAt,value
2018-11-07T00:00:18.616Z,29.83
2018-11-07T00:02:48.029Z,28.73
2018-11-07T00:05:18.458Z,27.37
2018-11-07T00:07:47.814Z,20.73
2018-11-07T00:10:17.133Z,20.33
2018-11-07T00:12:46.455Z,31.00
2018-11-07T00:15:16.570Z,29.03
2018-11-07T00:17:45.873Z,22.77
2018-11-07T00:20:15.173Z,24.37
2018-11-07T00:22:44.449Z,25.37
2018-11-07T00:25:13.781Z,17.47
2018-11-07T00:27:43.116Z,24.37
2018-11-07T00:30:12.667Z,21.13
2018-11-07T00:32:42.133Z,29.50
2018-11-07T00:35:12.163Z,20.27
2018-11-07T00:37:42.525Z,23.20
2018-11-07T00:40:12.316Z,22.63
2018-11-07T00:42:41.580Z,18.37
2018-11-07T00:45:12.569Z,41.77
2018-11-07T00:47:42.169Z,23.03
2018-11-07T00:50:14.128Z,26.67
2018-11-07T00:52:44.039Z,26.70
2018-11-07T00:55:14.061Z,21.97
2018-11-07T00:57:43.564Z,17.57
2018-11-07T01:00:16.357Z,22.63
2018-11-07T01:02:46.259Z,22.83
2018-11-07T01:05:15.525Z,26.27
2018-11-07T01:07:45.784Z,19.10
2018-11-07T01:10:15.049Z,19.80
2018-11-07T01:12:44.695Z,18.87
2018-11-07T01:15:14.401Z,17.77
2018-11-07T01:17:43.674Z,20.67
2018-11-07T01:20:14.229Z,15.00
2018-11-07T01:22:43.598Z,19.33
2018-11-07T01:25:12.839Z,16.17
2018-11-07T01:27:42.060Z,14.40
2018-11-07T01:30:13.273Z,13.80
2018-11-07T01:32:42.600Z,16.93
2018-11-07T01:35:11.875Z,24.77
2018-11-07T01:37:41.107Z,20.43
2018-11-07T01:40:12.630Z,17.87
2018-11-07T01:42:42.256Z,26.13
2018-11-07T01:45:12.557Z,17.33
2018-11-07T01:47:41.824Z,14.47
2018-11-07T01:50:12.932Z,13.40
2018-11-07T01:52:42.299Z,20.10
2018-11-07T01:55:11.808Z,24.20
2018-11-07T01:57:41.076Z,19.03
2018-11-07T02:00:11.949Z,18.20
2018-11-07T02:02:42.502Z,77.70
2018-11-07T02:05:11.868Z,54.10
2018-11-07T02:07:41.485Z,56.97
2018-11-07T02:10:11.401Z,63.10
2018-11-07T02:12:41.417Z,37.50
2018-11-07T02:15:11.119Z,22.37
2018-11-07T02:17:40.380Z,24.87
2018-11-07T02:20:11.060Z,30.53
2018-11-07T02:22:40.452Z,25.83
2018-11-07T02:25:09.737Z,31.20
2018-11-07T02:27:39.367Z,26.13
2018-11-07T02:30:11.133Z,30.13
2018-11-07T02:32:40.530Z,32.30
2018-11-07T02:35:09.752Z,24.20
2018-11-07T02:37:39.054Z,22.17
2018-11-07T02:40:09.144Z,20.63
2018-11-07T02:42:38.655Z,18.83
2018-11-07T02:45:07.976Z,20.10
2018-11-07T02:47:37.215Z,22.53
2018-11-07T02:50:07.544Z,24.93
2018-11-07T02:52:36.813Z,19.53
2018-11-07T02:55:06.256Z,22.47
2018-11-07T02:57:35.680Z,28.00
2018-11-07T03:00:06.072Z,33.43
2018-11-07T03:02:35.377Z,27.60
2018-11-07T03:05:04.739Z,37.73
2018-11-07T03:07:34.012Z,38.53
2018-11-07T03:10:03.341Z,42.53
2018-11-07T03:12:32.614Z,24.67
2018-11-07T03:15:01.894Z,34.13
2018-11-07T03:17:31.141Z,24.03
2018-11-07T03:20:00.415Z,22.87
2018-11-07T03:22:29.702Z,24.07
2018-11-07T03:24:58.915Z,19.93
2018-11-07T03:27:28.584Z,22.77
2018-11-07T03:29:57.845Z,22.90
2018-11-07T03:32:27.111Z,23.07
2018-11-07T03:34:56.338Z,21.80
2018-11-07T03:37:25.618Z,25.70
2018-11-07T03:39:54.959Z,20.03
2018-11-07T03:42:24.246Z,22.57
2018-11-07T03:44:53.508Z,34.30
2018-11-07T03:47:22.725Z,24.83
2018-11-07T03:49:51.985Z,27.47
2018-11-07T03:52:21.218Z,30.67
2018-11-07T03:54:50.450Z,27.00
2018-11-07T03:57:19.708Z,26.30
2018-11-07T03:59:48.976Z,28.60
2018-11-07T04:02:18.313Z,29.33
2018-11-07T04:04:47.513Z,28.87
2018-11-07T04:07:16.776Z,35.20
2018-11-07T04:09:46.035Z,26.07
2018-11-07T04:12:15.376Z,25.40
2018-11-07T04:14:44.703Z,25.70
2018-11-07T04:17:13.946Z,32.17
2018-11-07T04:19:43.236Z,30.53
2018-11-07T04:22:12.501Z,29.43
2018-11-07T04:24:41.724Z,26.03
2018-11-07T04:27:10.972Z,31.23
2018-11-07T04:29:40.232Z,34.30
2018-11-07T04:32:09.600Z,33.30
2018-11-07T04:34:38.829Z,22.87
2018-11-07T04:37:08.072Z,21.37
2018-11-07T04:39:37.372Z,23.90
2018-11-07T04:42:06.712Z,22.13
2018-11-07T04:44:35.938Z,21.17
2018-11-07T04:47:05.228Z,22.90
2018-11-07T04:49:34.472Z,24.40
2018-11-07T04:52:03.740Z,22.97
2018-11-07T04:54:33.001Z,22.47
2018-11-07T04:57:02.268Z,25.53
2018-11-07T04:59:31.495Z,23.00
2018-11-07T05:02:00.742Z,26.17
2018-11-07T05:04:30.032Z,23.07
2018-11-07T05:06:59.293Z,22.90
2018-11-07T05:09:28.569Z,21.10
2018-11-07T05:11:58.100Z,24.67
2018-11-07T05:14:27.359Z,22.60
2018-11-07T05:16:56.680Z,22.33
2018-11-07T05:19:26.002Z,19.00
2018-11-07T05:21:55.246Z,21.80
2018-11-07T05:24:24.664Z,24.37
2018-11-07T05:26:54.366Z,19.30
2018-11-07T05:29:23.673Z,22.90
2018-11-07T05:31:52.985Z,18.37
2018-11-07T05:34:22.344Z,16.83
2018-11-07T05:36:51.665Z,16.20
2018-11-07T05:39:20.975Z,16.40
2018-11-07T05:41:50.224Z,17.20
2018-11-07T05:44:19.653Z,15.00
2018-11-07T05:46:48.963Z,12.97
2018-11-07T05:49:18.234Z,38.53
2018-11-07T05:51:47.652Z,13.70
2018-11-07T05:54:17.923Z,13.80
2018-11-07T05:56:47.147Z,11.50
2018-11-07T05:59:16.386Z,11.33
2018-11-07T06:01:45.689Z,10.50
2018-11-07T06:04:15.078Z,11.20
2018-11-07T06:06:44.358Z,11.30
2018-11-07T06:09:13.916Z,9.23
2018-11-07T06:11:43.327Z,8.90
2018-11-07T06:14:12.693Z,10.77
2018-11-07T06:16:42.005Z,21.30
2018-11-07T06:19:11.267Z,15.10
2018-11-07T06:21:40.488Z,17.73
2018-11-07T06:24:09.847Z,14.67
2018-11-07T06:26:39.111Z,19.77
2018-11-07T06:29:08.444Z,17.73
2018-11-07T06:31:37.693Z,18.00
2018-11-07T06:34:09.190Z,28.23
2018-11-07T06:36:38.444Z,24.47
2018-11-07T06:39:09.872Z,34.90
2018-11-07T06:41:39.725Z,33.70
2018-11-07T06:44:09.520Z,29.90
2018-11-07T06:46:38.769Z,27.97
2018-11-07T06:49:08.186Z,32.33
2018-11-07T06:51:37.419Z,31.10
2018-11-07T06:54:06.817Z,33.67
2018-11-07T06:56:36.241Z,27.50
2018-11-07T06:59:05.768Z,23.47
2018-11-07T07:01:35.173Z,28.13
2018-11-07T07:04:04.616Z,24.03
2018-11-07T07:06:33.982Z,25.87
2018-11-07T07:09:03.524Z,24.07
2018-11-07T07:11:32.950Z,23.50
2018-11-07T07:14:02.809Z,28.07
2018-11-07T07:16:32.064Z,27.17
2018-11-07T07:19:01.456Z,33.93
2018-11-07T07:21:37.297Z,37.77
2018-11-07T07:24:06.668Z,40.87
2018-11-07T07:26:35.944Z,28.63
2018-11-07T07:29:05.716Z,28.20
2018-11-07T07:31:34.969Z,24.60
2018-11-07T07:34:04.305Z,19.80
2018-11-07T07:36:33.583Z,20.73
2018-11-07T07:39:02.904Z,23.23
2018-11-07T07:41:32.150Z,19.97
2018-11-07T07:44:02.438Z,19.97
2018-11-07T07:46:31.824Z,19.50
2018-11-07T07:49:01.166Z,17.97
2018-11-07T07:51:30.471Z,16.77
2018-11-07T07:53:59.868Z,15.50
2018-11-07T07:56:29.174Z,27.00
2018-11-07T07:58:58.465Z,31.20
2018-11-07T08:01:27.783Z,35.40
2018-11-07T08:03:57.213Z,36.43
2018-11-07T08:06:26.472Z,36.77
2018-11-07T08:08:55.742Z,32.77
2018-11-07T08:11:25.099Z,31.90
2018-11-07T08:13:54.534Z,26.33
2018-11-07T08:16:23.785Z,24.23
2018-11-07T08:18:53.416Z,33.40
2018-11-07T08:21:22.737Z,26.40
2018-11-07T08:23:52.097Z,28.37
2018-11-07T08:26:21.461Z,21.33
2018-11-07T08:28:50.724Z,23.10
2018-11-07T08:31:20.012Z,18.87
2018-11-07T08:33:49.469Z,25.20
2018-11-07T08:36:18.969Z,19.90
2018-11-07T08:38:48.221Z,22.73
2018-11-07T08:41:17.497Z,19.03
2018-11-07T08:43:46.945Z,16.20
2018-11-07T08:46:16.197Z,15.13
2018-11-07T08:48:45.541Z,16.13
2018-11-07T08:51:14.861Z,14.00
2018-11-07T08:53:44.199Z,33.83
2018-11-07T08:56:13.543Z,29.40
2018-11-07T08:58:42.864Z,23.93
2018-11-07T09:01:12.239Z,22.20
2018-11-07T09:03:42.026Z,23.50
2018-11-07T09:06:11.279Z,24.00
2018-11-07T09:08:40.555Z,23.23
2018-11-07T09:11:09.886Z,21.63
2018-11-07T09:13:39.220Z,26.13
2018-11-07T09:16:08.532Z,23.90
2018-11-07T09:18:37.833Z,19.87
2018-11-07T09:21:07.119Z,20.73
2018-11-07T09:23:36.745Z,27.17
2018-11-07T09:26:06.655Z,41.33
2018-11-07T09:28:35.939Z,58.70
2018-11-07T09:31:05.243Z,49.80
2018-11-07T09:33:34.514Z,41.10
2018-11-07T09:36:03.781Z,31.10
2018-11-07T09:38:33.053Z,31.87
2018-11-07T09:41:02.277Z,34.47
2018-11-07T09:43:31.656Z,25.80
2018-11-07T09:46:00.937Z,31.87
2018-11-07T09:48:30.234Z,19.93
2018-11-07T09:50:59.549Z,24.83
2018-11-07T09:53:28.952Z,17.93
2018-11-07T09:55:58.228Z,15.73
2018-11-07T09:58:27.643Z,16.63
2018-11-07T10:00:56.960Z,23.60
2018-11-07T10:03:26.326Z,26.30
2018-11-07T10:05:55.724Z,20.83
2018-11-07T10:08:24.961Z,19.27
2018-11-07T10:10:54.261Z,20.20
2018-11-07T10:13:23.665Z,17.13
2018-11-07T10:15:53.101Z,15.30
2018-11-07T10:18:22.360Z,15.80
2018-11-07T10:20:51.638Z,15.17
2018-11-07T10:23:20.929Z,32.07
2018-11-07T10:25:50.217Z,20.77
2018-11-07T10:28:19.670Z,16.63
2018-11-07T10:30:48.779Z,23.00
2018-11-07T10:33:18.185Z,27.17
2018-11-07T10:35:47.460Z,18.50
2018-11-07T10:38:16.833Z,20.80
2018-11-07T10:40:46.051Z,15.50
2018-11-07T10:43:15.361Z,16.53
2018-11-07T10:45:44.635Z,13.03
2018-11-07T10:48:13.869Z,13.07
2018-11-07T10:50:43.125Z,12.40
2018-11-07T10:53:12.452Z,12.73
2018-11-07T10:55:41.738Z,12.87
2018-11-07T10:58:11.036Z,23.23
2018-11-07T11:00:45.558Z,13.63
2018-11-07T11:03:19.933Z,13.13
2018-11-07T11:05:49.244Z,15.03
2018-11-07T11:08:18.534Z,14.40
2018-11-07T11:10:47.795Z,13.77
2018-11-07T11:13:17.102Z,12.00
2018-11-07T11:15:46.514Z,11.90
2018-11-07T11:18:15.880Z,13.30
2018-11-07T11:20:45.204Z,12.70
2018-11-07T11:23:14.567Z,12.70
2018-11-07T11:25:43.925Z,13.70
2018-11-07T11:28:13.220Z,13.30
2018-11-07T11:30:42.561Z,13.67
2018-11-07T11:33:11.933Z,12.57
2018-11-07T11:35:41.204Z,13.00
2018-11-07T11:38:10.565Z,14.30
2018-11-07T11:40:39.951Z,12.33
2018-11-07T11:43:09.456Z,8.13
2018-11-07T11:45:38.809Z,13.50
2018-11-07T11:48:08.500Z,17.90
2018-11-07T11:50:38.170Z,10.60
2018-11-07T11:53:07.820Z,9.47
2018-11-07T11:55:37.532Z,12.77
2018-11-07T11:58:07.586Z,9.10
2018-11-07T12:00:37.475Z,10.50
2018-11-07T12:03:07.601Z,9.47
2018-11-07T12:05:37.612Z,7.70
2018-11-07T12:08:07.427Z,8.20
2018-11-07T12:10:37.981Z,9.77
2018-11-07T12:13:08.116Z,10.67
2018-11-07T12:15:38.090Z,10.20
2018-11-07T12:18:07.961Z,9.37
2018-11-07T12:20:38.009Z,10.77
2018-11-07T12:23:08.325Z,11.00
2018-11-07T12:25:38.721Z,10.37
2018-11-07T12:28:08.507Z,8.63
2018-11-07T12:30:38.405Z,11.33
2018-11-07T12:33:08.344Z,12.17
2018-11-07T12:35:38.257Z,11.53
2018-11-07T12:38:08.158Z,9.83
2018-11-07T12:40:38.573Z,11.40
2018-11-07T12:43:08.534Z,7.30
2018-11-07T12:45:38.441Z,9.13
2018-11-07T12:48:08.302Z,5.90
2018-11-07T12:50:38.331Z,6.27
2018-11-07T12:53:08.206Z,5.03
2018-11-07T12:55:38.288Z,7.30
2018-11-07T12:58:08.410Z,6.83
2018-11-07T13:00:37.952Z,5.60
2018-11-07T13:03:07.965Z,6.30
2018-11-07T13:05:37.939Z,5.67
2018-11-07T13:08:08.133Z,7.13
2018-11-07T13:10:38.120Z,7.70
2018-11-07T13:13:08.111Z,7.60
2018-11-07T13:15:37.993Z,5.73
2018-11-07T13:18:07.890Z,4.73
2018-11-07T13:20:37.768Z,6.77
2018-11-07T13:23:07.676Z,3.33
2018-11-07T13:25:37.536Z,3.43
2018-11-07T13:28:07.507Z,3.97
2018-11-07T13:30:36.787Z,4.20
2018-11-07T13:33:06.593Z,4.23
2018-11-07T13:35:35.904Z,3.70
2018-11-07T13:38:05.418Z,3.70
2018-11-07T13:40:34.538Z,3.33
2018-11-07T13:43:03.892Z,3.57
2018-11-07T13:45:33.178Z,3.47
2018-11-07T13:48:02.436Z,3.50
2018-11-07T13:50:31.775Z,4.10
2018-11-07T13:53:01.181Z,3.87
2018-11-07T13:55:30.413Z,4.77
2018-11-07T13:57:59.717Z,4.50
2018-11-07T14:00:28.976Z,3.80
2018-11-07T14:02:58.220Z,5.20
2018-11-07T14:05:27.542Z,4.03
2018-11-07T14:07:56.816Z,3.63
2018-11-07T14:10:26.809Z,4.07
2018-11-07T14:12:56.208Z,3.60
2018-11-07T14:15:25.554Z,3.77
2018-11-07T14:17:54.821Z,5.17
2018-11-07T14:20:24.161Z,4.40
2018-11-07T14:22:53.506Z,3.87
2018-11-07T14:25:22.820Z,15.33
2018-11-07T14:27:52.465Z,17.57
2018-11-07T14:30:21.828Z,9.27
2018-11-07T14:32:57.190Z,15.43
2018-11-07T14:35:26.480Z,8.50
2018-11-07T14:37:56.454Z,9.80
2018-11-07T14:40:25.833Z,4.10
2018-11-07T14:42:55.202Z,3.70
2018-11-07T14:45:24.617Z,3.87
2018-11-07T14:47:53.919Z,3.40
2018-11-07T14:50:23.213Z,3.90
2018-11-07T14:52:52.608Z,3.77
2018-11-07T14:55:21.881Z,3.30
2018-11-07T14:57:51.113Z,4.47
2018-11-07T15:00:20.396Z,3.93
2018-11-07T15:02:49.884Z,3.77
2018-11-07T15:05:19.712Z,3.90
2018-11-07T15:07:49.025Z,4.33
2018-11-07T15:10:18.837Z,20.83
2018-11-07T15:12:48.296Z,21.80
2018-11-07T15:15:18.880Z,19.73
2018-11-07T15:17:48.291Z,17.30
2018-11-07T15:20:18.181Z,20.60
2018-11-07T15:22:48.505Z,22.87
2018-11-07T15:25:18.235Z,20.23
2018-11-07T15:27:48.144Z,14.10
2018-11-07T15:30:18.027Z,8.43
2018-11-07T15:32:47.637Z,4.73
2018-11-07T15:35:16.985Z,4.70
2018-11-07T15:37:46.304Z,6.77
2018-11-07T15:40:16.891Z,12.80
2018-11-07T15:42:46.699Z,18.37
2018-11-07T15:45:19.936Z,17.63
2018-11-07T15:47:49.190Z,16.43
2018-11-07T15:50:23.611Z,5.03
2018-11-07T15:52:52.940Z,5.27
2018-11-07T15:55:22.237Z,14.37
2018-11-07T15:57:51.617Z,8.60
2018-11-07T16:00:20.864Z,4.60
2018-11-07T16:02:50.192Z,10.47
2018-11-07T16:05:19.482Z,12.57
2018-11-07T16:07:48.797Z,11.57
2018-11-07T16:10:18.092Z,23.37
2018-11-07T16:12:47.444Z,10.03
2018-11-07T16:15:17.978Z,6.57
2018-11-07T16:17:47.220Z,9.03
2018-11-07T16:20:18.818Z,10.30
2018-11-07T16:22:48.805Z,10.20
2018-11-07T16:25:18.118Z,8.97
2018-11-07T16:27:47.524Z,9.23
2018-11-07T16:30:21.217Z,10.93
2018-11-07T16:32:51.537Z,7.40
2018-11-07T16:35:20.828Z,6.90
2018-11-07T16:37:50.066Z,6.97
2018-11-07T16:40:19.944Z,9.93
2018-11-07T16:42:49.322Z,8.50
2018-11-07T16:45:19.072Z,9.30
2018-11-07T16:47:48.477Z,7.40
2018-11-07T16:50:18.372Z,7.07
2018-11-07T16:52:47.842Z,10.03
2018-11-07T16:55:17.124Z,8.63
2018-11-07T16:57:46.627Z,5.93
2018-11-07T17:00:18.445Z,11.40
2018-11-07T17:02:48.272Z,11.10
2018-11-07T17:05:18.085Z,8.57
2018-11-07T17:07:47.696Z,6.17
2018-11-07T17:10:17.294Z,7.80
2018-11-07T17:12:46.599Z,29.40
2018-11-07T17:15:16.015Z,20.63
2018-11-07T17:17:45.426Z,8.63
2018-11-07T17:20:15.731Z,8.30
2018-11-07T17:22:45.181Z,7.17
2018-11-07T17:25:16.403Z,12.93
2018-11-07T17:27:45.693Z,13.00
2018-11-07T17:30:16.104Z,13.00
2018-11-07T17:32:45.506Z,14.10
2018-11-07T17:35:16.052Z,11.03
2018-11-07T17:37:45.774Z,11.07
2018-11-07T17:40:19.315Z,11.83
2018-11-07T17:42:48.824Z,9.07
2018-11-07T17:45:19.457Z,5.60
2018-11-07T17:47:49.889Z,4.83
2018-11-07T17:50:19.929Z,4.50
2018-11-07T17:52:49.822Z,5.23
2018-11-07T17:55:19.864Z,6.60
2018-11-07T17:57:49.187Z,5.63
2018-11-07T18:00:19.903Z,6.37
2018-11-07T18:02:49.295Z,5.87
2018-11-07T18:05:18.543Z,6.57
2018-11-07T18:07:47.834Z,6.27
2018-11-07T18:10:18.121Z,6.93
2018-11-07T18:12:47.604Z,10.60
2018-11-07T18:15:16.892Z,8.97
2018-11-07T18:17:46.168Z,8.97
2018-11-07T18:20:16.355Z,7.87
2018-11-07T18:22:45.622Z,9.97
2018-11-07T18:25:15.732Z,9.47
2018-11-07T18:27:45.039Z,7.37
2018-11-07T18:30:15.521Z,7.77
2018-11-07T18:32:45.489Z,6.80
2018-11-07T18:35:16.485Z,6.83
2018-11-07T18:37:46.038Z,7.00
2018-11-07T18:40:16.616Z,6.70
2018-11-07T18:42:46.002Z,7.73
2018-11-07T18:45:15.680Z,7.90
2018-11-07T18:47:46.021Z,7.03
2018-11-07T18:50:16.819Z,7.13
2018-11-07T18:52:46.252Z,6.77
2018-11-07T18:55:16.560Z,7.20
2018-11-07T18:57:46.643Z,7.47
2018-11-07T19:00:17.749Z,8.17
2018-11-07T19:02:47.643Z,7.50
2018-11-07T19:05:17.009Z,6.63
2018-11-07T19:07:46.277Z,8.83
2018-11-07T19:10:17.406Z,10.20
2018-11-07T19:12:47.366Z,10.53
2018-11-07T19:15:17.201Z,11.80
2018-11-07T19:17:47.328Z,9.53
2018-11-07T19:20:17.330Z,8.77
2018-11-07T19:22:46.677Z,9.13
2018-11-07T19:25:18.353Z,11.07
2018-11-07T19:27:48.688Z,9.60
2018-11-07T19:30:20.001Z,8.43
2018-11-07T19:32:50.260Z,10.07
2018-11-07T19:35:19.935Z,10.57
2018-11-07T19:37:49.827Z,10.77
2018-11-07T19:40:20.602Z,9.90
2018-11-07T19:42:49.985Z,10.03
2018-11-07T19:45:20.205Z,9.87
2018-11-07T19:47:49.785Z,7.67
2018-11-07T19:50:20.113Z,7.50
2018-11-07T19:52:50.152Z,8.40
2018-11-07T19:55:22.011Z,8.70
2018-11-07T19:57:57.963Z,8.53
2018-11-07T20:00:27.316Z,8.40
2018-11-07T20:02:56.705Z,10.17
2018-11-07T20:05:25.976Z,10.43
2018-11-07T20:07:55.280Z,10.77
2018-11-07T20:10:24.675Z,12.80
2018-11-07T20:12:54.024Z,11.77
2018-11-07T20:15:23.255Z,12.47
2018-11-07T20:17:52.512Z,12.13
2018-11-07T20:20:21.873Z,13.60
2018-11-07T20:22:51.256Z,13.07
2018-11-07T20:25:20.545Z,15.13
2018-11-07T20:27:49.800Z,16.03
2018-11-07T20:30:20.412Z,17.10
2018-11-07T20:32:49.651Z,17.33
2018-11-07T20:35:19.942Z,18.03
2018-11-07T20:37:49.160Z,18.03
2018-11-07T20:40:19.633Z,18.07
2018-11-07T20:42:49.005Z,19.43
2018-11-07T20:45:18.543Z,18.03
2018-11-07T20:47:48.051Z,18.10
2018-11-07T20:50:18.648Z,17.97
2018-11-07T20:52:48.289Z,18.00
2018-11-07T20:55:18.000Z,14.80
2018-11-07T20:57:47.265Z,13.87
2018-11-07T21:00:18.854Z,15.70
2018-11-07T21:02:48.349Z,12.60
2018-11-07T21:05:17.576Z,11.00
2018-11-07T21:07:46.819Z,11.87
2018-11-07T21:10:18.512Z,12.13
2018-11-07T21:12:48.259Z,16.50
2018-11-07T21:15:18.544Z,15.97
2018-11-07T21:17:48.053Z,15.77
2018-11-07T21:20:17.736Z,13.20
2018-11-07T21:22:49.030Z,15.80
2018-11-07T21:25:18.276Z,16.30
2018-11-07T21:27:47.527Z,13.47
2018-11-07T21:30:16.768Z,13.43
2018-11-07T21:32:46.097Z,13.67
2018-11-07T21:35:15.467Z,17.87
2018-11-07T21:37:44.696Z,15.63
2018-11-07T21:40:15.880Z,16.17
2018-11-07T21:42:46.094Z,16.37
2018-11-07T21:45:15.885Z,15.67
2018-11-07T21:47:45.278Z,16.00
2018-11-07T21:50:16.002Z,16.70
2018-11-07T21:52:45.348Z,16.50
2018-11-07T21:55:15.408Z,17.00
2018-11-07T21:57:44.668Z,17.87
2018-11-07T22:00:16.297Z,21.73
2018-11-07T22:02:45.876Z,17.07
2018-11-07T22:05:16.123Z,19.87
2018-11-07T22:07:45.343Z,19.27
2018-11-07T22:10:15.818Z,18.80
2018-11-07T22:12:45.117Z,18.87
2018-11-07T22:15:14.349Z,19.40
2018-11-07T22:17:43.570Z,19.97
2018-11-07T22:20:15.305Z,20.83
2018-11-07T22:22:45.116Z,22.03
2018-11-07T22:25:14.621Z,22.23
2018-11-07T22:27:44.024Z,23.80
2018-11-07T22:30:14.965Z,22.70
2018-11-07T22:32:46.381Z,21.83
2018-11-07T22:35:17.078Z,17.67
2018-11-07T22:37:46.809Z,19.87
2018-11-07T22:40:17.291Z,20.07
2018-11-07T22:42:46.562Z,21.17
2018-11-07T22:45:16.113Z,18.37
2018-11-07T22:47:45.357Z,18.67
2018-11-07T22:50:15.620Z,18.93
2018-11-07T22:52:45.629Z,17.67
2018-11-07T22:55:14.859Z,18.57
2018-11-07T22:57:44.236Z,18.33
2018-11-07T23:00:20.862Z,17.30
2018-11-07T23:02:54.328Z,17.63
2018-11-07T23:05:24.081Z,14.13
2018-11-07T23:07:53.482Z,13.23
2018-11-07T23:10:22.759Z,13.57
2018-11-07T23:12:52.096Z,13.63
2018-11-07T23:15:26.427Z,19.03
2018-11-07T23:17:55.705Z,14.00
2018-11-07T23:20:24.962Z,12.63
2018-11-07T23:22:54.337Z,12.50
2018-11-07T23:25:23.564Z,11.57
2018-11-07T23:27:52.840Z,11.33
2018-11-07T23:30:22.105Z,9.27
2018-11-07T23:32:51.426Z,10.47
2018-11-07T23:35:20.705Z,12.17
2018-11-07T23:37:49.957Z,13.40
2018-11-07T23:40:19.201Z,14.37
2018-11-07T23:42:48.496Z,16.00
2018-11-07T23:45:17.729Z,16.87
2018-11-07T23:47:46.996Z,16.53
2018-11-07T23:50:16.229Z,15.67
2018-11-07T23:52:48.090Z,16.17
2018-11-07T23:55:18.822Z,17.50
2018-11-07T23:57:48.524Z,15.93
